• Join FlightAware (Why Join?)
  • Login
  • US Flag 
02:13PM EST


 

Airport Tracker/Info


-or-


 

Live Flight TrackerFlight Track Log ✈ CPT8773 ✈ 26-Nov-2013 ✈ KCPR - KCOD

Flight Track Log - Related Links

Times and Time Zones

All times are in EST time to prevent confusion due to time zone crossing. See the CPT8773 flight status page for this flight to view local times or setup timezone preferences in your user account.

Time Position Orientation Groundspeed Altitude Reporting Facility
EST Latitude Longitude Course Direction KTS MPH feet Rate Location/Type
10:36AM 42.9294 -106.4978 349° North 102 117 7,300  Level Salt Lake Center
10:37AM 42.9525 -106.5069 344° North 93 107 8,100 720 Climbing Salt Lake Center
10:38AM 42.9811 -106.5128 352° North 93 107 8,800 660 Climbing Denver Center
10:39AM 43.0056 -106.5219 345° North 94 108 9,500 660 Climbing Denver Center
10:40AM 43.0522 -106.6843 307° West  Level Estimated
10:40AM 43.0339 -106.5317 346° North 94 108 10,200  Level Denver Center
10:41AM 43.0876 -106.6941 349° North  Level FlightAware Approximate
10:41AM 43.0575 -106.5417 343° North 93 107 10,700  Level Denver Center
10:42AM 43.0808 -106.5506 344° North 93 107 11,200 480 Climbing Denver Center
10:43AM 43.1075 -106.5622 342° North 91 105 11,800 420 Climbing Denver Center
10:44AM 43.1347 -106.5703 348° North 99 114 12,100 60 Climbing Denver Center
10:45AM 43.1728 -106.5839 345° North 120 138 12,000 -60 Descending Denver Center
10:46AM 43.2064 -106.5992 342° North 131 151 12,000  Level Denver Center
10:47AM 43.2472 -106.6167 343° North 136 157 12,000  Level Denver Center
10:48AM 43.2783 -106.6364 335° Northwest 135 155 12,000  Level Salt Lake Center
10:49AM 43.2956 -106.6806 298° West 135 155 12,000  Level Salt Lake Center
10:50AM 43.3217 -106.7250 309° West 134 154 12,000  Level Salt Lake Center
10:51AM 43.3447 -106.7633 310° West 135 155 12,100  Climbing Salt Lake Center
10:52AM 43.3656 -106.8050 305° West 138 159 12,000 -60 Descending Salt Lake Center
10:53AM 43.3889 -106.8531 304° West 137 158 12,000  Level Salt Lake Center
10:54AM 43.4100 -106.8919 307° West 135 155 12,100  Climbing Salt Lake Center
10:55AM 43.4314 -106.9342 305° West 135 155 12,000 -60 Descending Salt Lake Center
10:56AM 43.4528 -106.9775 304° West 136 157 12,000  Level Salt Lake Center
10:57AM 43.4806 -107.0247 309° West 134 154 12,100  Climbing Salt Lake Center
10:58AM 43.5014 -107.0647 306° West 129 148 12,100 -60 Level Salt Lake Center
10:59AM 43.5228 -107.1031 308° West 128 147 12,000 -60 Descending Salt Lake Center
11:00AM 43.5419 -107.1433 303° West 126 145 12,000  Level Salt Lake Center
11:02AM 43.5619 -107.1819 306° West 124 143 12,000  Level Salt Lake Center
11:03AM 43.5828 -107.2194 307° West 123 142 12,000  Level Salt Lake Center
11:04AM 43.6017 -107.2572 305° West 121 139 12,100  Climbing Salt Lake Center
11:05AM 43.6264 -107.3011 308° West 121 139 12,000 -60 Descending Salt Lake Center
11:06AM 43.6478 -107.3392 308° West 124 143 12,000  Level Salt Lake Center
11:07AM 43.6675 -107.3756 307° West 122 140 12,000  Level Salt Lake Center
11:08AM 43.6867 -107.4150 304° West 122 140 12,000  Level Salt Lake Center
11:09AM 43.7075 -107.4531 307° West 123 142 12,100  Climbing Salt Lake Center
11:10AM 43.7283 -107.4936 305° West 125 144 12,000  Descending Salt Lake Center
11:11AM 43.7536 -107.5400 307° West 127 146 12,100  Climbing Salt Lake Center
11:12AM 43.7744 -107.5808 305° West 127 146 12,100  Level Salt Lake Center
11:13AM 43.7950 -107.6217 305° West 128 147 12,100  Level Salt Lake Center
11:14AM 43.8158 -107.6608 306° West 128 147 12,100 -60 Level Salt Lake Center
11:15AM 43.8369 -107.7008 306° West 128 147 12,000  Descending Salt Lake Center
11:16AM 43.8578 -107.7394 307° West 127 146 12,100  Climbing Salt Lake Center
11:17AM 43.8833 -107.7847 308° West 126 145 12,100  Level Salt Lake Center
11:18AM 43.9033 -107.8256 304° West 126 145 12,100  Level Salt Lake Center
11:19AM 43.9242 -107.8644 307° West 126 145 12,100  Level Salt Lake Center
11:20AM 43.9442 -107.9047 305° West 126 145 12,100  Level Salt Lake Center
11:21AM 43.9653 -107.9456 306° West 128 147 12,100  Level Salt Lake Center
11:22AM 43.9869 -107.9858 307° West 129 148 12,100  Level Salt Lake Center
11:23AM 44.0089 -108.0253 308° West 129 148 12,100 -60 Level Salt Lake Center
11:24AM 44.0347 -108.0742 306° West 130 150 12,000  Descending Salt Lake Center
11:25AM 44.0558 -108.1161 305° West 131 151 12,100  Climbing Salt Lake Center
11:26AM 44.0775 -108.1569 306° West 131 151 12,000 -300 Descending Salt Lake Center
11:27AM 44.1011 -108.2008 307° West 135 155 11,500 -540 Descending Salt Lake Center
11:28AM 44.1275 -108.2492 307° West 143 165 10,900 -540 Descending Salt Lake Center
11:29AM 44.1528 -108.3003 305° West 152 175 10,400 -600 Descending Salt Lake Center
11:30AM 44.1831 -108.3608 305° West 156 180 9,700 -600 Descending Salt Lake Center
11:31AM 44.2078 -108.4092 306° West 156 180 9,200 -360 Descending Salt Lake Center
11:32AM 44.2325 -108.4558 306° West 154 177 9,000 -120 Descending Salt Lake Center
11:34AM 44.2542 -108.5003 304° West 148 170 9,000  Level Salt Lake Center
11:35AM 44.2744 -108.5422 304° West 140 161 9,100 60 Climbing Salt Lake Center